Funchalense 5 — CSKN — position and weather

sailwx.info

Track history (hours):
 
Tides and Currents Weather Stations Pressure Air Temp Water Temp Dewpoint Dewpoint Depression Visibility Wind Speed Wind Dir Waves Ship Positions

Funchalense 5

Last reported at 2016-Jun-26 04:20 UTC. Time now 2016-Jun-27 22:18 UTC.
Position N 38°30' W 009°33'.

Length 127 m; draft 7.5 m.

Type: Ship. MMSI: 255804250.

Date/timePositionNaut miles runAvg speedWind from/ knotsBaromVisibWave heightAir tempDewpointWater temp
2016-Jun-26 04:20N 38°30' W 009°33'1315.8
2016-Jun-26 03:31N 38°39' W 009°21'1211.8
2016-Jun-26 02:32N 38°43' W 009°07'0 0.2
2016-Jun-26 00:33N 38°43' W 009°07'0 0.0
2016-Jun-25 23:33N 38°43' W 009°07'0 0.0
2016-Jun-25 22:33N 38°43' W 009°07'0 0.0
2016-Jun-25 21:33N 38°43' W 009°07'0 0.0
2016-Jun-25 20:32N 38°43' W 009°07'0 0.0
2016-Jun-25 19:33N 38°43' W 009°07'0 0.0
2016-Jun-25 18:33N 38°43' W 009°07'0 0.0
2016-Jun-25 17:33N 38°43' W 009°07'0 0.0
2016-Jun-25 16:33N 38°43' W 009°07'0 0.0
2016-Jun-25 15:33N 38°43' W 009°07'0 0.0
2016-Jun-25 14:33N 38°43' W 009°07'0 0.0
2016-Jun-25 13:33N 38°43' W 009°07'0 0.0
2016-Jun-25 12:33N 38°43' W 009°07'0 0.0
2016-Jun-25 11:31N 38°43' W 009°07'0 0.0
2016-Jun-25 10:32N 38°43' W 009°07'0 0.0
2016-Jun-25 09:32N 38°43' W 009°07'8 6.4
2016-Jun-25 08:19N 38°41' W 009°16'1614.2
2016-Jun-25 07:11N 38°39' W 009°37'  
2016-Jun-23 01:12N 38°20' W 011°26'1116.5
2016-Jun-23 00:31N 38°11' W 011°34'8216.5
2016-Jun-22 19:32N 37°05' W 012°36'3316.8
2016-Jun-22 17:33N 36°38' W 013°01'8716.6
2016-Jun-22 12:20N 35°28' W 014°05'6816.3
2016-Jun-22 08:08N 34°33' W 014°54'1016.3
2016-Jun-22 07:33N 34°25' W 015°01'  
2016-Jun-19 20:09N 34°57' W 013°57'7416.0
2016-Jun-19 15:32N 35°50' W 012°53'23715.7
2016-Jun-19 00:23N 38°37' W 009°22'1212.4
2016-Jun-18 23:27N 38°42' W 009°08'2 0.4
2016-Jun-18 18:32N 38°43' W 009°07'0 0.0
2016-Jun-18 17:23N 38°43' W 009°07'0 0.0
2016-Jun-18 16:31N 38°43' W 009°07'0 0.0
2016-Jun-18 15:31N 38°43' W 009°07'0 0.0
2016-Jun-18 14:31N 38°43' W 009°07'0 0.0
2016-Jun-18 13:33N 38°43' W 009°07'0 0.0
2016-Jun-18 12:33N 38°43' W 009°07'0 0.0
2016-Jun-18 11:32N 38°43' W 009°07'0 0.0
2016-Jun-18 10:32N 38°43' W 009°07'0 0.0
2016-Jun-18 09:31N 38°43' W 009°07'0 0.0
2016-Jun-18 08:25N 38°43' W 009°07'0 0.0
2016-Jun-18 07:25N 38°43' W 009°07'1 1.0
2016-Jun-18 06:33N 38°43' W 009°07'  
Track history (hours):
 
Tides and Currents Weather Stations Pressure Air Temp Water Temp Dewpoint Dewpoint Depression Visibility Wind Speed Wind Dir Waves Ship Positions

Funchalense 5

Last reported at 2016-Jun-26 04:20 UTC. Time now 2016-Jun-27 22:18 UTC.
Position N 38°30' W 009°33'.

Length 127 m; draft 7.5 m.

Type: Ship. MMSI: 255804250.

Date/timePositionNaut miles runAvg speedWind from/ knotsBaromVisibWave heightAir tempDewpointWater temp
2016-Jun-26 04:20N 38°30' W 009°33'1315.8
2016-Jun-26 03:31N 38°39' W 009°21'1211.8
2016-Jun-26 02:32N 38°43' W 009°07'0 0.2
2016-Jun-26 00:33N 38°43' W 009°07'0 0.0
2016-Jun-25 23:33N 38°43' W 009°07'0 0.0
2016-Jun-25 22:33N 38°43' W 009°07'0 0.0
2016-Jun-25 21:33N 38°43' W 009°07'0 0.0
2016-Jun-25 20:32N 38°43' W 009°07'0 0.0
2016-Jun-25 19:33N 38°43' W 009°07'0 0.0
2016-Jun-25 18:33N 38°43' W 009°07'0 0.0
2016-Jun-25 17:33N 38°43' W 009°07'0 0.0
2016-Jun-25 16:33N 38°43' W 009°07'0 0.0
2016-Jun-25 15:33N 38°43' W 009°07'0 0.0
2016-Jun-25 14:33N 38°43' W 009°07'0 0.0
2016-Jun-25 13:33N 38°43' W 009°07'0 0.0
2016-Jun-25 12:33N 38°43' W 009°07'0 0.0
2016-Jun-25 11:31N 38°43' W 009°07'0 0.0
2016-Jun-25 10:32N 38°43' W 009°07'0 0.0
2016-Jun-25 09:32N 38°43' W 009°07'8 6.4
2016-Jun-25 08:19N 38°41' W 009°16'1614.2
2016-Jun-25 07:11N 38°39' W 009°37'  
2016-Jun-23 01:12N 38°20' W 011°26'1116.5
2016-Jun-23 00:31N 38°11' W 011°34'8216.5
2016-Jun-22 19:32N 37°05' W 012°36'3316.8
2016-Jun-22 17:33N 36°38' W 013°01'8716.6
2016-Jun-22 12:20N 35°28' W 014°05'6816.3
2016-Jun-22 08:08N 34°33' W 014°54'1016.3
2016-Jun-22 07:33N 34°25' W 015°01'  
2016-Jun-19 20:09N 34°57' W 013°57'7416.0
2016-Jun-19 15:32N 35°50' W 012°53'23715.7
2016-Jun-19 00:23N 38°37' W 009°22'1212.4
2016-Jun-18 23:27N 38°42' W 009°08'2 0.4
2016-Jun-18 18:32N 38°43' W 009°07'0 0.0
2016-Jun-18 17:23N 38°43' W 009°07'0 0.0
2016-Jun-18 16:31N 38°43' W 009°07'0 0.0
2016-Jun-18 15:31N 38°43' W 009°07'0 0.0
2016-Jun-18 14:31N 38°43' W 009°07'0 0.0
2016-Jun-18 13:33N 38°43' W 009°07'0 0.0
2016-Jun-18 12:33N 38°43' W 009°07'0 0.0
2016-Jun-18 11:32N 38°43' W 009°07'0 0.0
2016-Jun-18 10:32N 38°43' W 009°07'0 0.0
2016-Jun-18 09:31N 38°43' W 009°07'0 0.0
2016-Jun-18 08:25N 38°43' W 009°07'0 0.0
2016-Jun-18 07:25N 38°43' W 009°07'1 1.0
2016-Jun-18 06:33N 38°43' W 009°07'  

Dump ship's entire track history